sensor_id;sensor_type;location;lat;lon;timestamp;P1;durP1;ratioP1;P2;durP2;ratioP2
27013;SDS011;14556;52.222;4.510;2022-12-18T00:01:12;49.70;;;18.87;;
27013;SDS011;14556;52.222;4.510;2022-12-18T00:03:41;46.00;;;15.40;;
27013;SDS011;14556;52.222;4.510;2022-12-18T00:06:09;54.07;;;17.40;;
27013;SDS011;14556;52.222;4.510;2022-12-18T00:08:35;53.97;;;19.53;;
27013;SDS011;14556;52.222;4.510;2022-12-18T00:11:05;59.77;;;17.30;;
27013;SDS011;14556;52.222;4.510;2022-12-18T00:13:34;47.93;;;19.00;;
27013;SDS011;14556;52.222;4.510;2022-12-18T00:16:02;49.30;;;17.93;;
27013;SDS011;14556;52.222;4.510;2022-12-18T00:18:30;55.30;;;18.73;;
27013;SDS011;14556;52.222;4.510;2022-12-18T00:21:00;46.23;;;14.67;;
27013;SDS011;14556;52.222;4.510;2022-12-18T00:23:29;66.17;;;21.10;;
27013;SDS011;14556;52.222;4.510;2022-12-18T00:26:00;50.23;;;18.37;;
27013;SDS011;14556;52.222;4.510;2022-12-18T00:28:28;54.60;;;19.47;;
27013;SDS011;14556;52.222;4.510;2022-12-18T00:31:02;45.40;;;16.80;;
27013;SDS011;14556;52.222;4.510;2022-12-18T00:33:30;39.57;;;15.80;;
27013;SDS011;14556;52.222;4.510;2022-12-18T00:36:00;38.93;;;13.77;;
27013;SDS011;14556;52.222;4.510;2022-12-18T00:38:31;60.50;;;19.27;;
27013;SDS011;14556;52.222;4.510;2022-12-18T00:40:58;48.00;;;16.57;;
27013;SDS011;14556;52.222;4.510;2022-12-18T00:43:25;52.27;;;18.30;;
27013;SDS011;14556;52.222;4.510;2022-12-18T00:45:51;55.47;;;18.17;;
27013;SDS011;14556;52.222;4.510;2022-12-18T00:48:18;54.37;;;17.83;;
27013;SDS011;14556;52.222;4.510;2022-12-18T00:50:44;47.47;;;17.07;;
27013;SDS011;14556;52.222;4.510;2022-12-18T00:53:11;64.20;;;21.57;;
27013;SDS011;14556;52.222;4.510;2022-12-18T00:55:42;65.93;;;16.97;;
27013;SDS011;14556;52.222;4.510;2022-12-18T00:58:09;51.13;;;18.23;;
27013;SDS011;14556;52.222;4.510;2022-12-18T01:00:37;58.63;;;18.67;;
27013;SDS011;14556;52.222;4.510;2022-12-18T01:03:04;38.97;;;15.37;;
27013;SDS011;14556;52.222;4.510;2022-12-18T01:05:31;36.00;;;12.60;;
27013;SDS011;14556;52.222;4.510;2022-12-18T01:07:58;58.57;;;19.03;;
27013;SDS011;14556;52.222;4.510;2022-12-18T01:10:25;46.03;;;17.63;;
27013;SDS011;14556;52.222;4.510;2022-12-18T01:12:51;49.33;;;17.47;;
27013;SDS011;14556;52.222;4.510;2022-12-18T01:15:18;50.63;;;17.17;;
27013;SDS011;14556;52.222;4.510;2022-12-18T01:17:45;42.70;;;14.00;;
27013;SDS011;14556;52.222;4.510;2022-12-18T01:20:12;58.37;;;18.83;;
27013;SDS011;14556;52.222;4.510;2022-12-18T01:22:38;49.10;;;17.17;;
27013;SDS011;14556;52.222;4.510;2022-12-18T01:25:05;55.80;;;18.47;;
27013;SDS011;14556;52.222;4.510;2022-12-18T01:27:33;51.67;;;17.83;;
27013;SDS011;14556;52.222;4.510;2022-12-18T01:29:59;54.83;;;16.97;;
27013;SDS011;14556;52.222;4.510;2022-12-18T01:32:28;49.43;;;17.70;;
27013;SDS011;14556;52.222;4.510;2022-12-18T01:34:56;54.67;;;16.80;;
27013;SDS011;14556;52.222;4.510;2022-12-18T01:37:23;52.80;;;18.43;;
27013;SDS011;14556;52.222;4.510;2022-12-18T01:39:49;50.10;;;17.13;;
27013;SDS011;14556;52.222;4.510;2022-12-18T01:42:16;54.27;;;16.53;;
27013;SDS011;14556;52.222;4.510;2022-12-18T01:47:40;51.23;;;19.37;;
27013;SDS011;14556;52.222;4.510;2022-12-18T01:55:48;48.87;;;18.27;;
27013;SDS011;14556;52.222;4.510;2022-12-18T01:58:18;68.70;;;20.87;;
27013;SDS011;14556;52.222;4.510;2022-12-18T02:00:48;52.03;;;17.13;;
27013;SDS011;14556;52.222;4.510;2022-12-18T02:03:14;42.73;;;16.07;;
27013;SDS011;14556;52.222;4.510;2022-12-18T02:08:49;46.33;;;14.40;;
27013;SDS011;14556;52.222;4.510;2022-12-18T02:11:19;52.73;;;16.80;;
27013;SDS011;14556;52.222;4.510;2022-12-18T02:16:34;48.50;;;16.43;;
27013;SDS011;14556;52.222;4.510;2022-12-18T02:27:50;33.50;;;12.80;;
27013;SDS011;14556;52.222;4.510;2022-12-18T02:30:20;46.37;;;15.73;;
27013;SDS011;14556;52.222;4.510;2022-12-18T02:32:49;49.00;;;19.50;;
27013;SDS011;14556;52.222;4.510;2022-12-18T02:35:27;43.33;;;16.17;;
27013;SDS011;14556;52.222;4.510;2022-12-18T02:37:56;42.77;;;16.37;;
27013;SDS011;14556;52.222;4.510;2022-12-18T02:40:24;44.57;;;15.63;;
27013;SDS011;14556;52.222;4.510;2022-12-18T02:42:53;41.37;;;15.67;;
27013;SDS011;14556;52.222;4.510;2022-12-18T02:45:20;29.73;;;12.90;;
27013;SDS011;14556;52.222;4.510;2022-12-18T02:47:48;41.33;;;14.63;;
27013;SDS011;14556;52.222;4.510;2022-12-18T02:50:22;39.13;;;15.67;;
27013;SDS011;14556;52.222;4.510;2022-12-18T03:03:51;47.97;;;16.30;;
27013;SDS011;14556;52.222;4.510;2022-12-18T03:06:35;31.97;;;14.40;;
27013;SDS011;14556;52.222;4.510;2022-12-18T03:09:13;40.30;;;15.57;;
27013;SDS011;14556;52.222;4.510;2022-12-18T03:11:46;38.03;;;13.87;;
27013;SDS011;14556;52.222;4.510;2022-12-18T03:14:38;33.23;;;12.90;;
27013;SDS011;14556;52.222;4.510;2022-12-18T03:17:07;42.63;;;14.77;;
27013;SDS011;14556;52.222;4.510;2022-12-18T03:19:39;34.80;;;14.77;;
27013;SDS011;14556;52.222;4.510;2022-12-18T03:22:09;40.97;;;15.87;;
27013;SDS011;14556;52.222;4.510;2022-12-18T03:24:36;47.37;;;16.57;;
27013;SDS011;14556;52.222;4.510;2022-12-18T03:27:06;31.40;;;13.37;;
27013;SDS011;14556;52.222;4.510;2022-12-18T03:29:40;39.87;;;14.80;;
27013;SDS011;14556;52.222;4.510;2022-12-18T03:32:15;36.70;;;13.20;;
27013;SDS011;14556;52.222;4.510;2022-12-18T03:34:45;30.97;;;13.93;;
27013;SDS011;14556;52.222;4.510;2022-12-18T03:37:15;44.40;;;16.57;;
27013;SDS011;14556;52.222;4.510;2022-12-18T03:39:41;40.13;;;13.97;;
27013;SDS011;14556;52.222;4.510;2022-12-18T03:55:38;41.00;;;13.97;;
27013;SDS011;14556;52.222;4.510;2022-12-18T03:58:05;35.10;;;12.93;;
27013;SDS011;14556;52.222;4.510;2022-12-18T04:00:34;44.17;;;15.20;;
27013;SDS011;14556;52.222;4.510;2022-12-18T04:03:01;36.17;;;12.73;;
27013;SDS011;14556;52.222;4.510;2022-12-18T04:05:30;41.73;;;15.03;;
27013;SDS011;14556;52.222;4.510;2022-12-18T04:07:59;35.73;;;13.40;;
27013;SDS011;14556;52.222;4.510;2022-12-18T04:10:27;40.30;;;14.50;;
27013;SDS011;14556;52.222;4.510;2022-12-18T04:12:57;30.37;;;12.87;;
27013;SDS011;14556;52.222;4.510;2022-12-18T04:15:24;38.10;;;14.87;;
27013;SDS011;14556;52.222;4.510;2022-12-18T04:17:50;34.47;;;13.17;;
27013;SDS011;14556;52.222;4.510;2022-12-18T04:20:18;30.60;;;12.30;;
27013;SDS011;14556;52.222;4.510;2022-12-18T04:22:44;40.07;;;15.17;;
27013;SDS011;14556;52.222;4.510;2022-12-18T04:25:11;39.50;;;13.87;;
27013;SDS011;14556;52.222;4.510;2022-12-18T04:27:38;29.93;;;13.30;;
27013;SDS011;14556;52.222;4.510;2022-12-18T04:30:05;34.37;;;12.40;;
27013;SDS011;14556;52.222;4.510;2022-12-18T04:32:33;30.63;;;13.67;;
27013;SDS011;14556;52.222;4.510;2022-12-18T04:35:00;35.47;;;14.57;;
27013;SDS011;14556;52.222;4.510;2022-12-18T04:37:26;30.93;;;13.20;;
27013;SDS011;14556;52.222;4.510;2022-12-18T04:39:53;32.10;;;13.83;;
27013;SDS011;14556;52.222;4.510;2022-12-18T04:42:19;39.57;;;14.67;;
27013;SDS011;14556;52.222;4.510;2022-12-18T04:44:46;35.87;;;13.93;;
27013;SDS011;14556;52.222;4.510;2022-12-18T04:47:12;38.40;;;13.83;;
27013;SDS011;14556;52.222;4.510;2022-12-18T04:49:39;30.77;;;11.43;;
27013;SDS011;14556;52.222;4.510;2022-12-18T04:52:07;31.10;;;12.97;;
27013;SDS011;14556;52.222;4.510;2022-12-18T04:54:33;35.43;;;13.00;;
27013;SDS011;14556;52.222;4.510;2022-12-18T04:57:00;31.93;;;13.57;;
27013;SDS011;14556;52.222;4.510;2022-12-18T04:59:26;33.73;;;12.40;;
27013;SDS011;14556;52.222;4.510;2022-12-18T05:01:53;32.60;;;13.10;;
27013;SDS011;14556;52.222;4.510;2022-12-18T05:04:19;29.43;;;12.43;;
27013;SDS011;14556;52.222;4.510;2022-12-18T05:06:46;39.67;;;14.83;;
27013;SDS011;14556;52.222;4.510;2022-12-18T05:09:13;32.87;;;12.93;;
27013;SDS011;14556;52.222;4.510;2022-12-18T05:11:39;33.50;;;14.23;;
27013;SDS011;14556;52.222;4.510;2022-12-18T05:14:06;32.47;;;12.50;;
27013;SDS011;14556;52.222;4.510;2022-12-18T05:16:32;33.17;;;12.80;;
27013;SDS011;14556;52.222;4.510;2022-12-18T05:18:59;25.80;;;11.57;;
27013;SDS011;14556;52.222;4.510;2022-12-18T05:21:25;30.53;;;12.57;;
27013;SDS011;14556;52.222;4.510;2022-12-18T05:23:51;27.63;;;11.43;;
27013;SDS011;14556;52.222;4.510;2022-12-18T05:26:18;24.30;;;11.43;;
27013;SDS011;14556;52.222;4.510;2022-12-18T05:28:45;27.87;;;12.40;;
27013;SDS011;14556;52.222;4.510;2022-12-18T05:31:12;31.13;;;12.50;;
27013;SDS011;14556;52.222;4.510;2022-12-18T05:33:39;32.70;;;12.53;;
27013;SDS011;14556;52.222;4.510;2022-12-18T05:36:06;36.33;;;12.83;;
27013;SDS011;14556;52.222;4.510;2022-12-18T05:38:36;32.77;;;14.17;;
27013;SDS011;14556;52.222;4.510;2022-12-18T05:41:04;29.30;;;13.47;;
27013;SDS011;14556;52.222;4.510;2022-12-18T05:43:30;34.13;;;14.83;;
27013;SDS011;14556;52.222;4.510;2022-12-18T05:45:57;25.97;;;10.97;;
27013;SDS011;14556;52.222;4.510;2022-12-18T05:48:23;32.37;;;14.57;;
27013;SDS011;14556;52.222;4.510;2022-12-18T05:50:50;35.50;;;13.70;;
27013;SDS011;14556;52.222;4.510;2022-12-18T05:53:17;39.13;;;16.37;;
27013;SDS011;14556;52.222;4.510;2022-12-18T05:55:46;33.13;;;12.93;;
27013;SDS011;14556;52.222;4.510;2022-12-18T05:58:13;32.47;;;13.70;;
27013;SDS011;14556;52.222;4.510;2022-12-18T06:00:41;32.43;;;13.80;;
27013;SDS011;14556;52.222;4.510;2022-12-18T06:03:10;36.30;;;15.67;;
27013;SDS011;14556;52.222;4.510;2022-12-18T06:05:38;38.07;;;13.60;;
27013;SDS011;14556;52.222;4.510;2022-12-18T06:08:06;30.23;;;11.93;;
27013;SDS011;14556;52.222;4.510;2022-12-18T06:10:33;32.90;;;13.00;;
27013;SDS011;14556;52.222;4.510;2022-12-18T06:13:00;38.00;;;14.67;;
27013;SDS011;14556;52.222;4.510;2022-12-18T06:15:27;43.10;;;14.53;;
27013;SDS011;14556;52.222;4.510;2022-12-18T06:17:53;39.97;;;14.53;;
27013;SDS011;14556;52.222;4.510;2022-12-18T06:20:21;33.90;;;13.90;;
27013;SDS011;14556;52.222;4.510;2022-12-18T06:22:48;40.57;;;14.27;;
27013;SDS011;14556;52.222;4.510;2022-12-18T06:25:14;38.93;;;15.30;;
27013;SDS011;14556;52.222;4.510;2022-12-18T06:27:41;36.90;;;15.13;;
27013;SDS011;14556;52.222;4.510;2022-12-18T06:30:10;40.93;;;14.83;;
27013;SDS011;14556;52.222;4.510;2022-12-18T06:32:37;36.03;;;14.93;;
27013;SDS011;14556;52.222;4.510;2022-12-18T06:35:04;33.63;;;15.23;;
27013;SDS011;14556;52.222;4.510;2022-12-18T06:37:31;36.67;;;15.47;;
27013;SDS011;14556;52.222;4.510;2022-12-18T06:39:57;41.13;;;15.57;;
27013;SDS011;14556;52.222;4.510;2022-12-18T06:42:24;35.47;;;14.03;;
27013;SDS011;14556;52.222;4.510;2022-12-18T06:44:51;34.37;;;15.13;;
27013;SDS011;14556;52.222;4.510;2022-12-18T06:47:18;38.43;;;16.27;;
27013;SDS011;14556;52.222;4.510;2022-12-18T06:49:44;34.90;;;15.27;;
27013;SDS011;14556;52.222;4.510;2022-12-18T06:52:11;32.63;;;15.40;;
27013;SDS011;14556;52.222;4.510;2022-12-18T06:54:37;35.50;;;16.00;;
27013;SDS011;14556;52.222;4.510;2022-12-18T06:57:03;34.27;;;13.60;;
27013;SDS011;14556;52.222;4.510;2022-12-18T06:59:30;40.97;;;16.00;;
27013;SDS011;14556;52.222;4.510;2022-12-18T07:01:56;40.53;;;15.50;;
27013;SDS011;14556;52.222;4.510;2022-12-18T07:04:30;36.37;;;13.20;;
27013;SDS011;14556;52.222;4.510;2022-12-18T07:06:57;25.37;;;13.27;;
27013;SDS011;14556;52.222;4.510;2022-12-18T07:09:24;29.97;;;14.00;;
27013;SDS011;14556;52.222;4.510;2022-12-18T07:11:52;34.00;;;14.47;;
27013;SDS011;14556;52.222;4.510;2022-12-18T07:14:18;28.97;;;13.60;;
27013;SDS011;14556;52.222;4.510;2022-12-18T07:16:45;32.83;;;14.60;;
27013;SDS011;14556;52.222;4.510;2022-12-18T07:19:11;28.80;;;13.83;;
27013;SDS011;14556;52.222;4.510;2022-12-18T07:21:38;25.13;;;12.40;;
27013;SDS011;14556;52.222;4.510;2022-12-18T07:24:05;36.13;;;14.47;;
27013;SDS011;14556;52.222;4.510;2022-12-18T07:26:31;31.77;;;14.33;;
27013;SDS011;14556;52.222;4.510;2022-12-18T07:28:58;32.23;;;15.93;;
27013;SDS011;14556;52.222;4.510;2022-12-18T07:31:25;30.93;;;15.57;;
27013;SDS011;14556;52.222;4.510;2022-12-18T07:33:52;27.17;;;13.07;;
27013;SDS011;14556;52.222;4.510;2022-12-18T07:36:19;31.87;;;14.50;;
27013;SDS011;14556;52.222;4.510;2022-12-18T07:38:46;32.37;;;14.77;;
27013;SDS011;14556;52.222;4.510;2022-12-18T07:41:14;27.77;;;13.90;;
27013;SDS011;14556;52.222;4.510;2022-12-18T07:43:41;26.77;;;13.47;;
27013;SDS011;14556;52.222;4.510;2022-12-18T07:46:09;32.53;;;15.30;;
27013;SDS011;14556;52.222;4.510;2022-12-18T07:48:38;30.67;;;13.17;;
27013;SDS011;14556;52.222;4.510;2022-12-18T07:51:06;26.10;;;12.90;;
27013;SDS011;14556;52.222;4.510;2022-12-18T07:53:34;30.27;;;16.80;;
27013;SDS011;14556;52.222;4.510;2022-12-18T07:56:05;26.87;;;14.07;;
27013;SDS011;14556;52.222;4.510;2022-12-18T07:58:54;29.73;;;13.67;;
27013;SDS011;14556;52.222;4.510;2022-12-18T08:01:20;29.73;;;13.03;;
27013;SDS011;14556;52.222;4.510;2022-12-18T08:03:47;33.60;;;15.80;;
27013;SDS011;14556;52.222;4.510;2022-12-18T08:06:17;29.67;;;15.30;;
27013;SDS011;14556;52.222;4.510;2022-12-18T08:08:43;32.33;;;14.80;;
27013;SDS011;14556;52.222;4.510;2022-12-18T08:11:10;32.57;;;14.10;;
27013;SDS011;14556;52.222;4.510;2022-12-18T08:13:36;23.97;;;12.23;;
27013;SDS011;14556;52.222;4.510;2022-12-18T08:16:05;33.03;;;14.80;;
27013;SDS011;14556;52.222;4.510;2022-12-18T08:18:34;26.13;;;12.80;;
27013;SDS011;14556;52.222;4.510;2022-12-18T08:21:13;29.37;;;12.97;;
27013;SDS011;14556;52.222;4.510;2022-12-18T08:23:42;30.60;;;13.17;;
27013;SDS011;14556;52.222;4.510;2022-12-18T08:26:09;24.33;;;12.90;;
27013;SDS011;14556;52.222;4.510;2022-12-18T08:28:37;23.83;;;12.17;;
27013;SDS011;14556;52.222;4.510;2022-12-18T08:31:04;29.37;;;12.17;;
27013;SDS011;14556;52.222;4.510;2022-12-18T08:33:32;23.83;;;12.97;;
27013;SDS011;14556;52.222;4.510;2022-12-18T08:35:59;23.90;;;11.50;;
27013;SDS011;14556;52.222;4.510;2022-12-18T08:38:27;23.73;;;12.43;;
27013;SDS011;14556;52.222;4.510;2022-12-18T08:40:58;25.97;;;12.80;;
27013;SDS011;14556;52.222;4.510;2022-12-18T08:43:27;26.20;;;12.10;;
27013;SDS011;14556;52.222;4.510;2022-12-18T08:46:12;25.57;;;13.53;;
27013;SDS011;14556;52.222;4.510;2022-12-18T08:48:42;23.27;;;11.73;;
27013;SDS011;14556;52.222;4.510;2022-12-18T08:51:09;20.63;;;12.07;;
27013;SDS011;14556;52.222;4.510;2022-12-18T08:53:36;26.27;;;12.17;;
27013;SDS011;14556;52.222;4.510;2022-12-18T08:56:04;23.67;;;11.27;;
27013;SDS011;14556;52.222;4.510;2022-12-18T08:58:31;21.77;;;11.80;;
27013;SDS011;14556;52.222;4.510;2022-12-18T09:01:01;26.07;;;11.97;;
27013;SDS011;14556;52.222;4.510;2022-12-18T09:03:29;22.73;;;11.27;;
27013;SDS011;14556;52.222;4.510;2022-12-18T09:05:55;21.03;;;10.83;;
27013;SDS011;14556;52.222;4.510;2022-12-18T09:08:22;25.10;;;13.33;;
27013;SDS011;14556;52.222;4.510;2022-12-18T09:10:49;23.07;;;11.07;;
27013;SDS011;14556;52.222;4.510;2022-12-18T09:13:16;22.60;;;11.63;;
27013;SDS011;14556;52.222;4.510;2022-12-18T09:15:45;23.80;;;12.03;;
27013;SDS011;14556;52.222;4.510;2022-12-18T09:18:14;23.87;;;10.80;;
27013;SDS011;14556;52.222;4.510;2022-12-18T09:20:42;20.67;;;8.93;;
27013;SDS011;14556;52.222;4.510;2022-12-18T09:23:09;21.00;;;10.07;;
27013;SDS011;14556;52.222;4.510;2022-12-18T09:25:35;20.70;;;10.07;;
27013;SDS011;14556;52.222;4.510;2022-12-18T09:28:03;20.47;;;9.60;;
27013;SDS011;14556;52.222;4.510;2022-12-18T09:30:44;21.17;;;11.57;;
27013;SDS011;14556;52.222;4.510;2022-12-18T09:33:12;18.37;;;10.27;;
27013;SDS011;14556;52.222;4.510;2022-12-18T09:35:40;25.13;;;11.03;;
27013;SDS011;14556;52.222;4.510;2022-12-18T09:38:09;22.53;;;11.07;;
27013;SDS011;14556;52.222;4.510;2022-12-18T09:40:46;20.87;;;12.30;;
27013;SDS011;14556;52.222;4.510;2022-12-18T09:43:18;28.37;;;11.97;;
27013;SDS011;14556;52.222;4.510;2022-12-18T09:45:53;22.20;;;11.43;;
27013;SDS011;14556;52.222;4.510;2022-12-18T09:48:31;26.37;;;12.20;;
27013;SDS011;14556;52.222;4.510;2022-12-18T09:51:08;11.37;;;6.33;;
27013;SDS011;14556;52.222;4.510;2022-12-18T09:53:41;22.97;;;11.53;;
27013;SDS011;14556;52.222;4.510;2022-12-18T09:56:16;20.17;;;10.83;;
27013;SDS011;14556;52.222;4.510;2022-12-18T09:59:21;25.77;;;12.50;;
27013;SDS011;14556;52.222;4.510;2022-12-18T10:01:47;27.60;;;14.63;;
27013;SDS011;14556;52.222;4.510;2022-12-18T10:04:14;20.97;;;11.63;;
27013;SDS011;14556;52.222;4.510;2022-12-18T10:06:52;21.83;;;10.73;;
27013;SDS011;14556;52.222;4.510;2022-12-18T10:09:55;22.60;;;9.77;;
27013;SDS011;14556;52.222;4.510;2022-12-18T10:21:02;18.13;;;10.23;;
27013;SDS011;14556;52.222;4.510;2022-12-18T10:26:24;26.70;;;10.83;;
27013;SDS011;14556;52.222;4.510;2022-12-18T10:28:51;22.53;;;12.07;;
27013;SDS011;14556;52.222;4.510;2022-12-18T10:31:21;21.50;;;11.37;;
27013;SDS011;14556;52.222;4.510;2022-12-18T10:33:49;23.97;;;12.30;;
27013;SDS011;14556;52.222;4.510;2022-12-18T10:36:16;22.63;;;10.80;;
27013;SDS011;14556;52.222;4.510;2022-12-18T10:38:43;19.10;;;10.17;;
27013;SDS011;14556;52.222;4.510;2022-12-18T10:43:48;30.63;;;13.87;;
27013;SDS011;14556;52.222;4.510;2022-12-18T10:46:16;23.67;;;12.17;;
27013;SDS011;14556;52.222;4.510;2022-12-18T10:51:28;24.10;;;12.97;;
27013;SDS011;14556;52.222;4.510;2022-12-18T10:56:29;23.50;;;10.90;;
27013;SDS011;14556;52.222;4.510;2022-12-18T10:59:07;21.47;;;9.67;;
27013;SDS011;14556;52.222;4.510;2022-12-18T11:04:19;19.77;;;11.50;;
27013;SDS011;14556;52.222;4.510;2022-12-18T11:07:07;21.20;;;11.27;;
27013;SDS011;14556;52.222;4.510;2022-12-18T11:09:38;19.23;;;10.97;;
27013;SDS011;14556;52.222;4.510;2022-12-18T11:12:19;31.73;;;12.73;;
27013;SDS011;14556;52.222;4.510;2022-12-18T11:14:49;13.90;;;8.47;;
27013;SDS011;14556;52.222;4.510;2022-12-18T11:17:21;22.50;;;10.60;;
27013;SDS011;14556;52.222;4.510;2022-12-18T11:20:03;18.73;;;10.03;;
27013;SDS011;14556;52.222;4.510;2022-12-18T11:22:53;23.33;;;11.60;;
27013;SDS011;14556;52.222;4.510;2022-12-18T11:25:22;23.57;;;12.07;;
27013;SDS011;14556;52.222;4.510;2022-12-18T11:28:43;23.40;;;12.47;;
27013;SDS011;14556;52.222;4.510;2022-12-18T11:33:46;20.90;;;11.33;;
27013;SDS011;14556;52.222;4.510;2022-12-18T11:36:40;26.27;;;12.33;;
27013;SDS011;14556;52.222;4.510;2022-12-18T11:39:11;17.30;;;8.97;;
27013;SDS011;14556;52.222;4.510;2022-12-18T11:41:53;22.37;;;12.27;;
27013;SDS011;14556;52.222;4.510;2022-12-18T11:44:38;27.47;;;13.33;;
27013;SDS011;14556;52.222;4.510;2022-12-18T11:47:13;25.10;;;12.33;;
27013;SDS011;14556;52.222;4.510;2022-12-18T11:49:49;24.63;;;13.97;;
27013;SDS011;14556;52.222;4.510;2022-12-18T11:54:47;23.83;;;11.70;;
27013;SDS011;14556;52.222;4.510;2022-12-18T11:57:30;20.93;;;11.17;;
27013;SDS011;14556;52.222;4.510;2022-12-18T12:00:16;32.87;;;13.87;;
27013;SDS011;14556;52.222;4.510;2022-12-18T12:03:06;21.60;;;11.87;;
27013;SDS011;14556;52.222;4.510;2022-12-18T12:16:23;22.17;;;11.80;;
27013;SDS011;14556;52.222;4.510;2022-12-18T12:22:03;23.40;;;10.73;;
27013;SDS011;14556;52.222;4.510;2022-12-18T12:39:09;23.47;;;10.70;;
27013;SDS011;14556;52.222;4.510;2022-12-18T12:41:41;24.63;;;11.53;;
27013;SDS011;14556;52.222;4.510;2022-12-18T12:44:31;22.00;;;10.77;;
27013;SDS011;14556;52.222;4.510;2022-12-18T12:47:04;23.33;;;11.87;;
27013;SDS011;14556;52.222;4.510;2022-12-18T12:49:38;20.63;;;8.90;;
27013;SDS011;14556;52.222;4.510;2022-12-18T12:52:07;23.30;;;11.30;;
27013;SDS011;14556;52.222;4.510;2022-12-18T12:54:40;22.00;;;11.90;;
27013;SDS011;14556;52.222;4.510;2022-12-18T13:02:14;25.60;;;11.60;;
27013;SDS011;14556;52.222;4.510;2022-12-18T13:04:54;22.40;;;11.40;;
27013;SDS011;14556;52.222;4.510;2022-12-18T13:07:37;22.83;;;11.43;;
27013;SDS011;14556;52.222;4.510;2022-12-18T13:13:01;26.63;;;11.97;;
27013;SDS011;14556;52.222;4.510;2022-12-18T13:16:07;20.23;;;10.77;;
27013;SDS011;14556;52.222;4.510;2022-12-18T13:18:34;26.33;;;13.07;;
27013;SDS011;14556;52.222;4.510;2022-12-18T13:21:08;24.23;;;12.07;;
27013;SDS011;14556;52.222;4.510;2022-12-18T13:23:47;27.23;;;13.27;;
27013;SDS011;14556;52.222;4.510;2022-12-18T13:28:54;20.97;;;10.50;;
27013;SDS011;14556;52.222;4.510;2022-12-18T13:34:21;21.90;;;12.47;;
27013;SDS011;14556;52.222;4.510;2022-12-18T13:36:54;27.80;;;13.30;;
27013;SDS011;14556;52.222;4.510;2022-12-18T13:39:25;24.17;;;12.17;;
27013;SDS011;14556;52.222;4.510;2022-12-18T13:47:26;19.13;;;10.27;;
27013;SDS011;14556;52.222;4.510;2022-12-18T13:49:57;21.60;;;9.33;;
27013;SDS011;14556;52.222;4.510;2022-12-18T13:52:26;20.13;;;10.97;;
27013;SDS011;14556;52.222;4.510;2022-12-18T13:54:55;23.67;;;11.40;;
27013;SDS011;14556;52.222;4.510;2022-12-18T13:59:55;18.77;;;10.47;;
27013;SDS011;14556;52.222;4.510;2022-12-18T14:02:27;18.70;;;10.10;;
27013;SDS011;14556;52.222;4.510;2022-12-18T14:04:54;27.53;;;12.47;;
27013;SDS011;14556;52.222;4.510;2022-12-18T14:07:22;24.13;;;11.43;;
27013;SDS011;14556;52.222;4.510;2022-12-18T14:09:52;22.73;;;10.83;;
27013;SDS011;14556;52.222;4.510;2022-12-18T14:12:45;26.00;;;12.07;;
27013;SDS011;14556;52.222;4.510;2022-12-18T14:20:21;20.30;;;9.53;;
27013;SDS011;14556;52.222;4.510;2022-12-18T14:22:50;25.03;;;11.30;;
27013;SDS011;14556;52.222;4.510;2022-12-18T14:25:18;21.57;;;11.17;;
27013;SDS011;14556;52.222;4.510;2022-12-18T14:27:48;28.00;;;12.73;;
27013;SDS011;14556;52.222;4.510;2022-12-18T14:33:03;28.40;;;14.30;;
27013;SDS011;14556;52.222;4.510;2022-12-18T14:35:32;25.53;;;12.07;;
27013;SDS011;14556;52.222;4.510;2022-12-18T14:38:09;16.50;;;9.17;;
27013;SDS011;14556;52.222;4.510;2022-12-18T14:40:52;24.13;;;10.73;;
27013;SDS011;14556;52.222;4.510;2022-12-18T14:43:20;17.80;;;10.43;;
27013;SDS011;14556;52.222;4.510;2022-12-18T14:45:47;24.57;;;10.73;;
27013;SDS011;14556;52.222;4.510;2022-12-18T14:48:17;21.87;;;12.20;;
27013;SDS011;14556;52.222;4.510;2022-12-18T14:51:00;19.50;;;11.50;;
27013;SDS011;14556;52.222;4.510;2022-12-18T14:53:33;26.63;;;12.37;;
27013;SDS011;14556;52.222;4.510;2022-12-18T14:56:03;20.80;;;11.93;;
27013;SDS011;14556;52.222;4.510;2022-12-18T14:58:46;26.53;;;12.03;;
27013;SDS011;14556;52.222;4.510;2022-12-18T15:01:25;26.13;;;12.43;;
27013;SDS011;14556;52.222;4.510;2022-12-18T15:04:01;21.47;;;11.03;;
27013;SDS011;14556;52.222;4.510;2022-12-18T15:06:30;23.30;;;12.73;;
27013;SDS011;14556;52.222;4.510;2022-12-18T15:11:58;21.80;;;11.13;;
27013;SDS011;14556;52.222;4.510;2022-12-18T15:17:15;23.17;;;11.23;;
27013;SDS011;14556;52.222;4.510;2022-12-18T15:19:44;25.73;;;12.43;;
27013;SDS011;14556;52.222;4.510;2022-12-18T15:22:16;27.97;;;13.13;;
27013;SDS011;14556;52.222;4.510;2022-12-18T15:24:49;22.43;;;12.53;;
27013;SDS011;14556;52.222;4.510;2022-12-18T15:27:27;24.57;;;11.40;;
27013;SDS011;14556;52.222;4.510;2022-12-18T15:32:36;17.67;;;9.97;;
27013;SDS011;14556;52.222;4.510;2022-12-18T15:35:23;21.77;;;10.37;;
27013;SDS011;14556;52.222;4.510;2022-12-18T15:37:51;20.33;;;10.60;;
27013;SDS011;14556;52.222;4.510;2022-12-18T15:40:21;21.87;;;9.07;;
27013;SDS011;14556;52.222;4.510;2022-12-18T15:42:51;19.37;;;10.33;;
27013;SDS011;14556;52.222;4.510;2022-12-18T15:45:39;22.50;;;10.87;;
27013;SDS011;14556;52.222;4.510;2022-12-18T15:48:19;21.50;;;11.27;;
27013;SDS011;14556;52.222;4.510;2022-12-18T15:50:48;23.60;;;11.30;;
27013;SDS011;14556;52.222;4.510;2022-12-18T15:53:16;23.33;;;11.00;;
27013;SDS011;14556;52.222;4.510;2022-12-18T15:55:43;17.70;;;9.97;;
27013;SDS011;14556;52.222;4.510;2022-12-18T15:58:29;21.70;;;10.20;;
27013;SDS011;14556;52.222;4.510;2022-12-18T16:00:55;23.90;;;12.47;;
27013;SDS011;14556;52.222;4.510;2022-12-18T16:03:25;21.50;;;10.33;;
27013;SDS011;14556;52.222;4.510;2022-12-18T16:05:51;23.23;;;12.00;;
27013;SDS011;14556;52.222;4.510;2022-12-18T16:08:19;18.70;;;9.77;;
27013;SDS011;14556;52.222;4.510;2022-12-18T16:10:45;26.20;;;11.70;;
27013;SDS011;14556;52.222;4.510;2022-12-18T16:13:20;17.27;;;8.50;;
27013;SDS011;14556;52.222;4.510;2022-12-18T16:15:46;26.07;;;11.30;;
27013;SDS011;14556;52.222;4.510;2022-12-18T16:18:13;18.27;;;9.97;;
27013;SDS011;14556;52.222;4.510;2022-12-18T16:20:40;23.77;;;11.90;;
27013;SDS011;14556;52.222;4.510;2022-12-18T16:23:07;23.80;;;11.13;;
27013;SDS011;14556;52.222;4.510;2022-12-18T16:25:33;25.00;;;12.07;;
27013;SDS011;14556;52.222;4.510;2022-12-18T16:27:59;19.67;;;10.83;;
27013;SDS011;14556;52.222;4.510;2022-12-18T16:30:27;28.73;;;12.57;;
27013;SDS011;14556;52.222;4.510;2022-12-18T16:33:03;28.57;;;13.87;;
27013;SDS011;14556;52.222;4.510;2022-12-18T16:35:29;24.43;;;13.07;;
27013;SDS011;14556;52.222;4.510;2022-12-18T16:37:56;18.80;;;9.90;;
27013;SDS011;14556;52.222;4.510;2022-12-18T16:40:22;25.53;;;12.20;;
27013;SDS011;14556;52.222;4.510;2022-12-18T16:42:49;24.23;;;11.27;;
27013;SDS011;14556;52.222;4.510;2022-12-18T16:45:17;20.43;;;11.80;;
27013;SDS011;14556;52.222;4.510;2022-12-18T16:47:44;19.67;;;10.10;;
27013;SDS011;14556;52.222;4.510;2022-12-18T16:50:11;25.20;;;12.47;;
27013;SDS011;14556;52.222;4.510;2022-12-18T16:52:38;25.03;;;11.67;;
27013;SDS011;14556;52.222;4.510;2022-12-18T16:55:05;25.93;;;12.40;;
27013;SDS011;14556;52.222;4.510;2022-12-18T16:57:32;24.13;;;11.80;;
27013;SDS011;14556;52.222;4.510;2022-12-18T16:59:58;22.20;;;11.50;;
27013;SDS011;14556;52.222;4.510;2022-12-18T17:02:30;17.30;;;9.30;;